TimeMDT,TemperatureF,Dew PointF,Humidity,Sea Level PressureIn,VisibilityMPH,Wind Direction,Wind SpeedMPH,Gust SpeedMPH,PrecipitationIn,Events,Conditions,WindDirDegrees,DateUTC
12:15 AM,35.6,5.0,28,-9999,10.0,NW,11.5,-,N/A,,Clear,310,2013-04-26 06:15:00
12:35 AM,35.6,6.8,30,-9999,10.0,NW,16.1,-,N/A,,Clear,320,2013-04-26 06:35:00
12:55 AM,35.6,6.8,30,-9999,10.0,NNW,17.3,-,N/A,,Clear,330,2013-04-26 06:55:00
1:15 AM,35.6,6.8,30,-9999,10.0,NNW,16.1,-,N/A,,Clear,330,2013-04-26 07:15:00
1:35 AM,35.6,8.6,33,-9999,10.0,NW,15.0,-,N/A,,Clear,320,2013-04-26 07:35:00
1:55 AM,35.6,8.6,33,-9999,10.0,NNW,15.0,-,N/A,,Clear,330,2013-04-26 07:55:00
2:15 AM,35.6,8.6,33,-9999,10.0,NNW,13.8,-,N/A,,Clear,330,2013-04-26 08:15:00
2:35 AM,35.6,8.6,33,-9999,10.0,NNW,15.0,-,N/A,,Clear,330,2013-04-26 08:35:00
2:55 AM,33.8,8.6,35,-9999,10.0,NNW,13.8,-,N/A,,Clear,330,2013-04-26 08:55:00
3:15 AM,33.8,8.6,35,-9999,10.0,NNW,13.8,-,N/A,,Clear,330,2013-04-26 09:15:00
3:35 AM,33.8,8.6,35,-9999,10.0,NNW,13.8,-,N/A,,Clear,330,2013-04-26 09:35:00
3:55 AM,33.8,8.6,35,-9999,10.0,NW,10.4,-,N/A,,Clear,320,2013-04-26 09:55:00
4:15 AM,33.8,10.4,38,-9999,10.0,NW,9.2,-,N/A,,Clear,310,2013-04-26 10:15:00
4:35 AM,33.8,10.4,38,-9999,10.0,NW,10.4,-,N/A,,Clear,310,2013-04-26 10:35:00
5:15 AM,33.8,10.4,38,-9999,10.0,NW,9.2,-,N/A,,Clear,310,2013-04-26 11:15:00
5:35 AM,33.8,10.4,38,-9999,10.0,NW,8.1,-,N/A,,Clear,310,2013-04-26 11:35:00
5:55 AM,33.8,10.4,38,-9999,10.0,NW,8.1,-,N/A,,Clear,320,2013-04-26 11:55:00
6:15 AM,33.8,10.4,38,-9999,10.0,NW,9.2,-,N/A,,Clear,320,2013-04-26 12:15:00
6:35 AM,33.8,10.4,38,-9999,10.0,NW,8.1,-,N/A,,Clear,320,2013-04-26 12:35:00
6:55 AM,33.8,10.4,38,-9999,10.0,NNW,9.2,-,N/A,,Clear,330,2013-04-26 12:55:00
7:15 AM,35.6,10.4,35,-9999,10.0,North,5.8,-,N/A,,Clear,350,2013-04-26 13:15:00
7:35 AM,35.6,10.4,35,-9999,10.0,NNW,6.9,-,N/A,,Clear,340,2013-04-26 13:35:00
7:55 AM,37.4,10.4,33,-9999,10.0,NNW,5.8,-,N/A,,Clear,340,2013-04-26 13:55:00
8:15 AM,41.0,10.4,29,-9999,10.0,NNW,5.8,-,N/A,,Clear,340,2013-04-26 14:15:00
8:35 AM,42.8,12.2,29,-9999,10.0,NW,3.5,-,N/A,,Clear,320,2013-04-26 14:35:00
8:55 AM,42.8,10.4,27,-9999,10.0,Calm,Calm,-,N/A,,Clear,0,2013-04-26 14:55:00
9:15 AM,42.8,8.6,25,-9999,10.0,SSW,4.6,-,N/A,,Clear,210,2013-04-26 15:15:00
9:35 AM,42.8,12.2,29,-9999,10.0,South,5.8,-,N/A,,Clear,190,2013-04-26 15:35:00
9:55 AM,44.6,10.4,25,-9999,10.0,South,9.2,-,N/A,,Clear,190,2013-04-26 15:55:00
10:15 AM,44.6,10.4,25,-9999,10.0,SSW,8.1,-,N/A,,Clear,200,2013-04-26 16:15:00
10:35 AM,44.6,10.4,25,-9999,10.0,SSW,8.1,-,N/A,,Clear,200,2013-04-26 16:35:00
10:55 AM,44.6,12.2,27,-9999,10.0,South,10.4,19.6,N/A,,Clear,190,2013-04-26 16:55:00
11:15 AM,44.6,12.2,27,-9999,10.0,South,11.5,17.3,N/A,,Clear,190,2013-04-26 17:15:00
11:35 AM,44.6,12.2,27,-9999,10.0,SW,9.2,-,N/A,,Clear,220,2013-04-26 17:35:00
11:55 AM,44.6,12.2,27,-9999,10.0,WSW,9.2,-,N/A,,Clear,240,2013-04-26 17:55:00
12:15 PM,44.6,10.4,25,-9999,10.0,SSW,9.2,16.1,N/A,,Clear,210,2013-04-26 18:15:00
12:35 PM,44.6,12.2,27,-9999,10.0,WSW,9.2,18.4,N/A,,Clear,240,2013-04-26 18:35:00
12:55 PM,46.4,12.2,25,-9999,10.0,WSW,11.5,18.4,N/A,,Clear,240,2013-04-26 18:55:00
1:15 PM,46.4,14.0,27,-9999,10.0,SSW,9.2,19.6,N/A,,Clear,210,2013-04-26 19:15:00
1:35 PM,46.4,12.2,25,-9999,10.0,WSW,11.5,21.9,N/A,,Clear,250,2013-04-26 19:35:00
1:55 PM,48.2,14.0,25,-9999,10.0,West,9.2,-,N/A,,Clear,260,2013-04-26 19:55:00
2:15 PM,48.2,14.0,25,-9999,10.0,WSW,12.7,17.3,N/A,,Clear,250,2013-04-26 20:15:00
2:35 PM,50.0,15.8,26,-9999,10.0,WSW,12.7,20.7,N/A,,Clear,240,2013-04-26 20:35:00
2:55 PM,50.0,14.0,24,-9999,10.0,SSW,8.1,20.7,N/A,,Clear,210,2013-04-26 20:55:00
3:15 PM,50.0,15.8,26,-9999,10.0,WSW,12.7,21.9,N/A,,Clear,240,2013-04-26 21:15:00
3:35 PM,50.0,14.0,24,-9999,10.0,SW,9.2,17.3,N/A,,Clear,220,2013-04-26 21:35:00
3:55 PM,51.8,12.2,21,-9999,10.0,WSW,11.5,18.4,N/A,,Clear,250,2013-04-26 21:55:00
4:15 PM,50.0,14.0,24,-9999,10.0,WSW,12.7,19.6,N/A,,Clear,250,2013-04-26 22:15:00
4:35 PM,51.8,12.2,21,-9999,10.0,WSW,11.5,18.4,N/A,,Clear,240,2013-04-26 22:35:00
5:15 PM,51.8,15.8,24,-9999,10.0,West,15.0,24.2,N/A,,Clear,260,2013-04-26 23:15:00
5:35 PM,51.8,14.0,22,-9999,10.0,WSW,11.5,18.4,N/A,,Clear,250,2013-04-26 23:35:00
5:55 PM,51.8,14.0,22,-9999,10.0,West,12.7,20.7,N/A,,Clear,260,2013-04-26 23:55:00
6:15 PM,51.8,12.2,21,-9999,10.0,West,10.4,26.5,N/A,,Clear,260,2013-04-27 00:15:00
6:35 PM,51.8,12.2,21,-9999,10.0,WSW,9.2,-,N/A,,Clear,250,2013-04-27 00:35:00
6:55 PM,50.0,12.2,22,-9999,10.0,WSW,13.8,17.3,N/A,,Clear,250,2013-04-27 00:55:00
7:15 PM,50.0,10.4,20,-9999,10.0,West,10.4,17.3,N/A,,Clear,270,2013-04-27 01:15:00
7:35 PM,50.0,12.2,22,-9999,10.0,West,9.2,-,N/A,,Clear,270,2013-04-27 01:35:00
7:55 PM,48.2,10.4,22,-9999,10.0,West,10.4,-,N/A,,Clear,280,2013-04-27 01:55:00
8:15 PM,46.4,10.4,23,-9999,10.0,WNW,6.9,-,N/A,,Clear,290,2013-04-27 02:15:00
8:35 PM,46.4,10.4,23,-9999,10.0,West,6.9,-,N/A,,Clear,280,2013-04-27 02:35:00
8:55 PM,44.6,10.4,25,-9999,10.0,WNW,8.1,-,N/A,,Clear,290,2013-04-27 02:55:00
9:15 PM,44.6,12.2,27,-9999,10.0,WNW,6.9,-,N/A,,Clear,290,2013-04-27 03:15:00
9:35 PM,42.8,12.2,29,-9999,10.0,WNW,8.1,-,N/A,,Clear,290,2013-04-27 03:35:00
9:55 PM,42.8,12.2,29,-9999,10.0,WNW,8.1,-,N/A,,Clear,290,2013-04-27 03:55:00
10:15 PM,42.8,12.2,29,-9999,10.0,WNW,9.2,-,N/A,,Clear,290,2013-04-27 04:15:00
10:35 PM,42.8,12.2,29,-9999,10.0,WNW,6.9,-,N/A,,Clear,290,2013-04-27 04:35:00
10:55 PM,41.0,12.2,31,-9999,10.0,WNW,10.4,-,N/A,,Clear,300,2013-04-27 04:55:00
11:15 PM,41.0,12.2,31,-9999,10.0,WNW,9.2,-,N/A,,Clear,300,2013-04-27 05:15:00
11:35 PM,41.0,12.2,31,-9999,10.0,WNW,6.9,-,N/A,,Clear,300,2013-04-27 05:35:00
11:55 PM,41.0,12.2,31,-9999,10.0,WNW,6.9,-,N/A,,Clear,290,2013-04-27 05:55:00